TAF Text Data
IDs:
Format:
Raw Decoded Include METAR

Data at: 1215 UTC 17 Dec 2018

KPUB 171153Z AUTO 32008KT 10SM CLR M07/M12 A3016 RMK AO2 SLP230 T10721117 11011 21083 58013

KPUB 171121Z 1712/1812 VRB05KT P6SM SCT250
  FM171800 26009KT P6SM BKN200
  FM172200 26009KT P6SM BKN150
  FM180300 34007KT P6SM BKN100